Time;durP1;ratioP1;P1;durP2;ratioP2;P2;SDS_P1;SDS_P2;PMS_P1;PMS_P2;Temp;Humidity;BMP_temperature;BMP_pressure;BME280_temperature;BME280_humidity;BME280_pressure;Samples;Min_cycle;Max_cycle;Signal;HPM_P1;HPM_P2
2022/04/13 00:00:28;;;;;;;;;2.00;2.00;;;;;16.51;56.61;100479.75;5075756;27;45361;-66
2022/04/13 00:02:54;;;;;;;;;3.00;3.00;;;;;16.54;56.25;100476.91;5075700;27;46293;-64
2022/04/13 00:05:20;;;;;;;;;2.00;1.33;;;;;16.54;56.67;100485.72;5075745;27;45427;-62
2022/04/13 00:07:48;;;;;;;;;2.33;1.67;;;;;16.52;57.39;100482.31;5075926;27;45518;-64
2022/04/13 00:10:14;;;;;;;;;1.00;1.00;;;;;16.54;56.99;100496.34;5075814;28;45446;-63
2022/04/13 00:12:40;;;;;;;;;1.33;1.33;;;;;16.58;56.84;100497.03;5075532;27;46125;-64
2022/04/13 00:15:09;;;;;;;;;2.00;2.00;;;;;16.55;57.50;100498.06;5075715;28;45454;-63
2022/04/13 00:17:36;;;;;;;;;1.00;1.00;;;;;16.55;56.97;100500.72;5075807;28;45454;-63
2022/04/13 00:20:02;;;;;;;;;2.00;2.00;;;;;16.62;57.35;100510.94;5075766;28;45569;-65
2022/04/13 00:22:28;;;;;;;;;2.00;2.00;;;;;16.61;56.95;100509.25;5075620;28;46134;-62
2022/04/13 00:24:53;;;;;;;;;4.00;2.00;;;;;16.67;56.44;100514.19;5075221;27;45434;-63
2022/04/13 00:27:18;;;;;;;;;1.00;1.00;;;;;16.67;57.04;100504.41;5075619;28;45440;-65
2022/04/13 00:29:44;;;;;;;;;2.67;2.00;;;;;16.73;57.22;100519.94;5075815;28;45616;-66
2022/04/13 00:32:09;;;;;;;;;3.00;2.00;;;;;16.71;56.89;100513.03;5075612;28;46523;-65
2022/04/13 00:34:34;;;;;;;;;2.67;1.67;;;;;16.72;56.67;100515.59;5075337;28;45424;-65
2022/04/13 00:37:00;;;;;;;;;3.00;1.00;;;;;16.72;57.17;100528.03;5075669;28;45497;-66
2022/04/13 00:39:26;;;;;;;;;3.00;1.00;;;;;16.66;56.96;100517.78;5075800;28;45450;-66
2022/04/13 00:41:57;;;;;;;;;2.00;2.00;;;;;16.71;56.03;100516.56;5076242;28;45384;-65
2022/04/13 00:44:22;;;;;;;;;2.00;2.00;;;;;16.72;57.14;100517.41;5078701;27;45512;-64
2022/04/13 00:46:47;;;;;;;;;1.00;1.00;;;;;16.71;56.84;100518.34;5079177;27;45429;-66
2022/04/13 00:49:14;;;;;;;;;2.33;2.33;;;;;16.68;56.79;100507.91;5078543;28;55932;-64
2022/04/13 00:51:39;;;;;;;;;3.00;3.00;;;;;16.68;56.79;100508.75;5078798;28;46589;-63
2022/04/13 00:54:06;;;;;;;;;2.00;2.00;;;;;16.70;57.39;100508.66;5078710;27;45492;-64
2022/04/13 00:56:35;;;;;;;;;2.00;2.00;;;;;16.65;57.57;100506.28;5078984;28;45314;-63
2022/04/13 00:59:06;;;;;;;;;3.33;3.33;;;;;16.62;57.67;100510.94;5078858;27;45520;-64
2022/04/13 01:01:34;;;;;;;;;2.00;2.00;;;;;16.63;58.11;100513.53;5078320;27;45339;-63
2022/04/13 01:04:00;;;;;;;;;3.00;1.00;;;;;16.63;57.75;100510.88;5078424;27;45377;-63
2022/04/13 01:06:27;;;;;;;;;2.33;2.00;;;;;16.63;57.07;100508.22;5078825;28;45481;-66
2022/04/13 01:08:55;;;;;;;;;2.00;2.00;;;;;16.66;57.34;100515.97;5078515;28;45543;-66
2022/04/13 01:11:21;;;;;;;;;2.33;2.33;;;;;16.68;57.94;100515.88;5078351;27;46528;-64
2022/04/13 01:13:46;;;;;;;;;3.33;2.33;;;;;16.67;57.07;100508.88;5078662;27;45398;-66
2022/04/13 01:16:13;;;;;;;;;2.33;2.00;;;;;16.68;57.52;100515.88;5078646;27;45374;-65
2022/04/13 01:18:38;;;;;;;;;4.00;3.00;;;;;16.66;57.80;100517.78;5077302;28;45437;-62
2022/04/13 01:21:05;;;;;;;;;4.67;2.67;;;;;16.62;57.74;100518.91;5078351;28;45436;-64
2022/04/13 01:23:31;;;;;;;;;3.00;3.00;;;;;16.62;57.66;100516.25;5078265;28;45536;-63
2022/04/13 01:25:56;;;;;;;;;4.67;3.00;;;;;16.63;57.26;100516.19;5078308;27;45483;-63
2022/04/13 01:28:22;;;;;;;;;2.00;2.00;;;;;16.61;57.38;100510.09;5077972;27;45409;-64
2022/04/13 01:30:49;;;;;;;;;3.00;3.00;;;;;16.67;58.04;100514.19;5078164;28;45556;-64
2022/04/13 01:33:14;;;;;;;;;2.67;2.00;;;;;16.68;57.71;100518.53;5078265;27;45444;-63
2022/04/13 01:35:40;;;;;;;;;3.00;3.00;;;;;16.67;58.18;100524.78;5078394;27;45410;-64
2022/04/13 01:38:06;;;;;;;;;2.67;2.67;;;;;16.65;58.09;100526.69;5078364;27;45419;-64
2022/04/13 01:40:32;;;;;;;;;1.00;1.00;;;;;16.66;57.42;100533.72;5078021;27;45359;-62
2022/04/13 01:42:57;;;;;;;;;3.33;3.33;;;;;16.66;58.09;100528.41;5078204;27;45357;-65
2022/04/13 01:45:23;;;;;;;;;3.00;3.00;;;;;16.61;58.56;100530.50;5078079;27;45413;-64
2022/04/13 01:47:52;;;;;;;;;1.00;1.00;;;;;16.57;58.48;100535.97;5076928;28;45592;-65
2022/04/13 01:50:19;;;;;;;;;3.33;3.33;;;;;16.55;58.66;100529.91;5078044;27;46266;-64
2022/04/13 01:52:48;;;;;;;;;2.00;1.00;;;;;16.55;58.28;100529.91;5076469;27;45430;-62
2022/04/13 01:55:15;;;;;;;;;3.00;3.00;;;;;16.50;58.76;100525.84;5078081;28;45409;-65
2022/04/13 01:57:41;;;;;;;;;5.67;3.67;;;;;16.58;59.08;100542.16;5078016;28;45474;-67
2022/04/13 02:00:09;;;;;;;;;4.00;3.00;;;;;16.56;58.92;100538.72;5077260;27;45409;-64
2022/04/13 02:02:35;;;;;;;;;2.00;2.00;;;;;16.58;58.50;100542.16;5077643;27;45477;-65
2022/04/13 02:05:00;;;;;;;;;4.00;4.00;;;;;16.51;59.42;100541.66;5077964;27;45462;-64
2022/04/13 02:07:27;;;;;;;;;3.00;3.00;;;;;16.53;58.92;100541.59;5077905;27;45580;-66
2022/04/13 02:09:53;;;;;;;;;3.00;3.00;;;;;16.55;59.11;100551.16;5077584;27;45947;-63
2022/04/13 02:12:18;;;;;;;;;3.33;3.33;;;;;16.46;59.57;100543.75;5077502;27;45483;-65
2022/04/13 02:14:44;;;;;;;;;5.33;2.67;;;;;16.43;59.70;100543.94;5077675;27;45386;-63
2022/04/13 02:17:14;;;;;;;;;3.00;3.00;;;;;16.42;59.04;100544.03;5077848;27;45632;-66
2022/04/13 02:19:40;;;;;;;;;3.67;3.67;;;;;16.41;59.51;100555.59;5076273;28;47263;-63
2022/04/13 02:22:05;;;;;;;;;3.33;3.33;;;;;16.37;59.69;100546.97;5077430;27;45468;-61
2022/04/13 02:24:34;;;;;;;;;3.33;3.33;;;;;16.37;60.12;100548.78;5077462;27;45397;-64
2022/04/13 02:27:00;;;;;;;;;3.33;3.33;;;;;16.43;59.11;100553.69;5077497;28;45394;-64
2022/04/13 02:29:26;;;;;;;;;5.67;3.00;;;;;16.45;59.54;100557.97;5075643;28;46346;-64
2022/04/13 02:31:51;;;;;;;;;3.33;3.33;;;;;16.51;59.29;100570.03;5077558;27;45421;-64
2022/04/13 02:34:18;;;;;;;;;5.00;4.00;;;;;16.43;59.38;100570.47;5077039;27;48282;-63
2022/04/13 02:36:43;;;;;;;;;3.33;3.33;;;;;16.43;59.82;100565.16;5077302;27;45402;-65
2022/04/13 02:39:09;;;;;;;;;6.67;4.00;;;;;16.40;60.42;100567.16;5077240;27;45519;-63
2022/04/13 02:41:34;;;;;;;;;3.33;3.33;;;;;16.41;59.45;100559.09;5077266;27;45570;-64
2022/04/13 02:43:59;;;;;;;;;4.00;4.00;;;;;16.44;60.06;100572.19;5077429;27;45796;-65
2022/04/13 02:46:25;;;;;;;;;3.67;3.67;;;;;16.38;60.29;100569.91;5077305;28;50520;-65
2022/04/13 02:48:50;;;;;;;;;3.00;3.00;;;;;16.38;60.79;100559.28;5077198;27;46211;-62
2022/04/13 02:51:15;;;;;;;;;2.33;2.33;;;;;16.40;60.35;100551.25;5075824;28;45439;-63
2022/04/13 02:53:41;;;;;;;;;2.00;2.00;;;;;16.43;60.81;100569.63;5077164;27;45446;-65
2022/04/13 02:56:06;;;;;;;;;3.67;3.67;;;;;16.35;60.81;100554.16;5077046;27;45597;-63
2022/04/13 02:58:32;;;;;;;;;2.00;2.00;;;;;16.34;60.77;100549.81;5075516;28;46182;-63
2022/04/13 03:00:57;;;;;;;;;3.00;3.00;;;;;16.42;61.52;100557.31;5076728;27;45503;-66
2022/04/13 03:03:22;;;;;;;;;5.00;4.00;;;;;16.37;60.45;100549.63;5077033;27;45284;-64
2022/04/13 03:05:48;;;;;;;;;4.00;4.00;;;;;16.39;60.43;100566.31;5076316;27;45307;-63
2022/04/13 03:08:13;;;;;;;;;3.67;3.67;;;;;16.39;61.38;100565.44;5075381;28;46453;-63
2022/04/13 03:10:43;;;;;;;;;3.67;3.00;;;;;16.38;60.84;100577.84;5076614;27;45465;-64
2022/04/13 03:13:10;;;;;;;;;4.67;3.67;;;;;16.37;60.37;100572.66;5077027;27;45542;-66
2022/04/13 03:15:35;;;;;;;;;3.00;3.00;;;;;16.39;61.60;100576.06;5077026;27;45439;-64
2022/04/13 03:18:01;;;;;;;;;5.00;4.00;;;;;16.37;61.20;100585.94;5076492;27;45499;-63
2022/04/13 03:20:26;;;;;;;;;4.00;4.00;;;;;16.39;61.13;100592.84;5076772;27;45482;-63
2022/04/13 03:22:52;;;;;;;;;7.00;4.00;;;;;16.36;62.27;100587.72;5076477;27;45472;-65
2022/04/13 03:25:17;;;;;;;;;2.00;2.00;;;;;16.23;61.94;100574.34;5076485;27;45425;-64
2022/04/13 03:27:42;;;;;;;;;5.00;5.00;;;;;16.35;62.41;100589.50;5076434;27;45524;-62
2022/04/13 03:30:08;;;;;;;;;4.33;3.00;;;;;16.33;61.85;100593.19;5076371;27;45444;-65
2022/04/13 03:32:38;;;;;;;;;5.00;3.67;;;;;16.29;62.70;100595.19;5076449;27;45369;-64
2022/04/13 03:35:05;;;;;;;;;4.00;4.00;;;;;16.31;63.38;100605.72;5075295;28;45571;-66
2022/04/13 03:37:30;;;;;;;;;3.00;3.00;;;;;16.29;62.38;100594.34;5076112;27;46209;-64
2022/04/13 03:39:56;;;;;;;;;3.00;3.00;;;;;16.31;62.90;100608.38;5076337;27;45434;-62
2022/04/13 03:42:21;;;;;;;;;4.00;4.00;;;;;16.28;62.86;100613.84;5076435;27;45319;-64
2022/04/13 03:44:47;;;;;;;;;6.00;5.67;;;;;16.27;63.51;100601.53;5076296;27;45467;-65
2022/04/13 03:47:12;;;;;;;;;5.00;3.00;;;;;16.25;64.33;100611.38;5076097;27;46301;-65
2022/04/13 03:49:37;;;;;;;;;4.67;4.67;;;;;16.19;63.86;100607.28;5076128;27;45378;-65
2022/04/13 03:52:03;;;;;;;;;5.67;5.67;;;;;16.20;63.95;100611.66;5076353;27;45394;-65
2022/04/13 03:54:29;;;;;;;;;5.00;5.00;;;;;16.19;64.75;100617.91;5076228;27;45595;-64
2022/04/13 03:56:54;;;;;;;;;5.00;5.00;;;;;16.19;64.28;100617.91;5076212;27;45392;-62
2022/04/13 03:59:21;;;;;;;;;5.00;5.00;;;;;16.18;64.26;100613.56;5075819;27;45517;-65
2022/04/13 04:01:47;;;;;;;;;4.33;4.33;;;;;16.13;64.55;100610.31;5075781;27;45488;-65
2022/04/13 04:04:12;;;;;;;;;6.67;5.33;;;;;16.07;63.94;100606.22;5075890;27;45516;-64
2022/04/13 04:06:37;;;;;;;;;5.33;5.33;;;;;16.10;64.85;100611.34;5075614;27;46166;-62
2022/04/13 04:09:03;;;;;;;;;6.00;4.67;;;;;16.11;64.25;100625.47;5075960;27;45490;-66
2022/04/13 04:11:29;;;;;;;;;7.00;5.00;;;;;16.10;64.31;100618.44;5075857;27;45563;-65
2022/04/13 04:13:55;;;;;;;;;5.67;5.00;;;;;16.00;64.49;100607.50;5075785;27;45486;-66
2022/04/13 04:16:20;;;;;;;;;5.00;5.00;;;;;16.04;65.35;100632.94;5073564;27;46096;-64
2022/04/13 04:18:48;;;;;;;;;4.00;4.00;;;;;15.99;65.33;100628.84;5075596;27;47035;-66
2022/04/13 04:21:16;;;;;;;;;4.67;4.67;;;;;15.98;65.48;100632.41;5075834;27;45398;-65
2022/04/13 04:23:42;;;;;;;;;5.00;5.00;;;;;15.98;65.06;100638.56;5075552;27;45555;-64
2022/04/13 04:26:09;;;;;;;;;7.67;7.00;;;;;15.94;66.22;100629.09;5075103;27;46114;-63
2022/04/13 04:28:34;;;;;;;;;6.00;6.00;;;;;15.95;66.58;100645.84;5075498;27;45465;-63
2022/04/13 04:31:01;;;;;;;;;8.33;6.00;;;;;15.86;66.23;100634.81;5075350;27;45430;-66
2022/04/13 04:33:26;;;;;;;;;6.33;6.00;;;;;15.84;65.97;100649.97;5075704;27;45620;-67
2022/04/13 04:35:51;;;;;;;;;7.00;7.00;;;;;15.82;67.40;100646.53;5074038;28;45407;-64
2022/04/13 04:38:18;;;;;;;;;7.00;5.00;;;;;15.75;66.03;100653.16;5075380;27;45389;-63
2022/04/13 04:40:43;;;;;;;;;6.00;4.00;;;;;15.76;66.48;100651.34;5075393;27;45449;-64
2022/04/13 04:43:09;;;;;;;;;6.33;6.00;;;;;15.76;66.94;100648.69;5075544;27;45503;-63
2022/04/13 04:45:37;;;;;;;;;7.33;7.33;;;;;15.75;65.99;100650.50;5075403;27;45563;-65
2022/04/13 04:48:05;;;;;;;;;6.33;6.33;;;;;15.82;67.39;100653.63;5075708;27;45557;-62
2022/04/13 04:50:31;;;;;;;;;7.00;5.33;;;;;15.82;66.38;100656.28;5075647;27;45463;-66
2022/04/13 04:52:57;;;;;;;;;8.00;6.00;;;;;15.81;66.36;100649.28;5091024;27;45576;-64
2022/04/13 04:55:22;;;;;;;;;6.67;6.67;;;;;15.87;66.71;100651.59;5073754;28;46254;-60
2022/04/13 04:57:48;;;;;;;;;7.00;6.00;;;;;15.89;66.41;100650.56;5075361;27;45400;-64
2022/04/13 05:00:19;;;;;;;;;6.67;6.67;;;;;15.87;66.85;100655.09;5073925;28;45473;-64
2022/04/13 05:02:51;;;;;;;;;8.00;8.00;;;;;15.92;66.38;100654.84;5075239;27;45456;-63
2022/04/13 05:05:17;;;;;;;;;7.67;7.67;;;;;15.88;66.08;100650.66;5075149;27;45601;-65
2022/04/13 05:07:44;;;;;;;;;9.33;9.33;;;;;15.91;66.60;100655.78;5074973;27;45469;-66
2022/04/13 05:10:10;;;;;;;;;9.00;9.00;;;;;15.94;65.96;100670.69;5075128;27;45523;-63
2022/04/13 05:12:46;;;;;;;;;10.67;9.00;;;;;15.93;67.12;100666.28;5074836;27;45502;-62
2022/04/13 05:15:12;;;;;;;;;8.00;8.00;;;;;15.85;67.08;100664.06;5074764;27;46427;-62
2022/04/13 05:17:38;;;;;;;;;9.00;9.00;;;;;15.92;67.34;100670.75;5074875;27;45515;-65
2022/04/13 05:20:05;;;;;;;;;9.33;9.00;;;;;15.94;66.36;100674.19;5073466;28;45528;-63
2022/04/13 05:22:33;;;;;;;;;8.00;8.00;;;;;15.95;66.70;100681.19;5074722;28;45359;-67
2022/04/13 05:25:10;;;;;;;;;8.00;8.00;;;;;15.96;65.64;100682.03;5074241;28;46183;-64
2022/04/13 05:27:36;;;;;;;;;10.67;10.67;;;;;15.96;66.20;100677.63;5075034;28;45457;-63
2022/04/13 05:30:04;;;;;;;;;9.00;7.67;;;;;15.95;66.86;100673.22;5078527;27;45436;-63
2022/04/13 05:32:29;;;;;;;;;10.00;10.00;;;;;15.95;67.29;100675.03;5078278;27;45600;-64
2022/04/13 05:35:02;;;;;;;;;9.33;9.33;;;;;15.93;67.47;100671.59;5077882;28;45488;-63
2022/04/13 05:37:28;;;;;;;;;7.33;7.00;;;;;15.94;67.55;100674.19;5077732;27;45390;-62
2022/04/13 05:39:54;;;;;;;;;9.00;9.00;;;;;15.95;66.29;100681.19;5078051;28;45378;-65
2022/04/13 05:42:31;;;;;;;;;9.00;9.00;;;;;15.95;66.03;100683.00;5077838;27;45554;-65
2022/04/13 05:44:57;;;;;;;;;8.67;8.33;;;;;15.94;67.61;100679.50;5077694;28;45426;-64
2022/04/13 05:47:22;;;;;;;;;9.33;9.33;;;;;15.95;66.80;100681.19;5077581;28;45500;-66
2022/04/13 05:49:48;;;;;;;;;10.00;10.00;;;;;15.94;67.36;100690.09;5077731;27;45469;-65
2022/04/13 05:52:13;;;;;;;;;9.33;9.33;;;;;15.94;67.67;100690.09;5077978;27;45583;-66
2022/04/13 05:54:39;;;;;;;;;8.67;8.67;;;;;15.96;67.69;100692.66;5077587;27;45539;-65
2022/04/13 05:57:04;;;;;;;;;9.33;9.33;;;;;15.95;67.52;100696.25;5077925;27;45433;-66
2022/04/13 05:59:30;;;;;;;;;8.33;8.33;;;;;15.91;67.04;100687.63;5077345;27;45478;-65
2022/04/13 06:01:55;;;;;;;;;11.00;10.00;;;;;15.97;66.87;100697.88;5077578;27;45419;-63
2022/04/13 06:04:22;;;;;;;;;10.33;10.33;;;;;15.98;67.64;100702.22;5077208;28;55845;-65
2022/04/13 06:06:47;;;;;;;;;12.33;11.67;;;;;15.99;67.56;100703.97;5077617;27;45417;-66
2022/04/13 06:09:12;;;;;;;;;8.67;8.67;;;;;15.98;67.25;100707.53;5077787;27;45444;-64
2022/04/13 06:11:38;;;;;;;;;11.33;10.00;;;;;16.00;66.95;100715.41;5077640;27;45437;-65
2022/04/13 06:14:03;;;;;;;;;11.00;11.00;;;;;15.93;67.54;100706.09;5077375;27;45482;-66
2022/04/13 06:16:28;;;;;;;;;14.00;11.67;;;;;15.98;68.05;100728.75;5077339;27;45536;-66
2022/04/13 06:18:54;;;;;;;;;12.00;11.00;;;;;15.97;67.59;100715.59;5077779;27;45361;-66
2022/04/13 06:21:19;;;;;;;;;11.00;10.00;;;;;15.99;67.17;100719.88;5077350;28;45469;-65
2022/04/13 06:23:45;;;;;;;;;11.33;11.33;;;;;16.00;67.76;100732.19;5076671;27;45480;-63
2022/04/13 06:26:11;;;;;;;;;11.00;11.00;;;;;16.02;67.35;100734.78;5075757;28;45409;-63
2022/04/13 06:28:36;;;;;;;;;11.00;11.00;;;;;15.94;67.07;100716.63;5077420;27;45413;-63
2022/04/13 06:31:02;;;;;;;;;13.00;13.00;;;;;16.02;67.15;100740.94;5077232;27;45467;-63
2022/04/13 06:33:27;;;;;;;;;10.67;10.00;;;;;15.98;68.16;100738.53;5077065;28;45491;-66
2022/04/13 06:35:52;;;;;;;;;9.67;9.00;;;;;16.01;68.09;100749.84;5076982;27;45510;-62
2022/04/13 06:38:17;;;;;;;;;11.00;11.00;;;;;15.97;67.88;100750.09;5077208;27;45421;-64
2022/04/13 06:40:43;;;;;;;;;14.00;12.67;;;;;15.93;68.24;100745.88;5076297;28;45420;-63
2022/04/13 06:43:09;;;;;;;;;14.00;12.00;;;;;15.95;68.46;100757.25;5077167;27;46130;-65
2022/04/13 06:45:36;;;;;;;;;14.67;12.00;;;;;15.88;67.62;100749.66;5075492;28;45417;-65
2022/04/13 06:48:03;;;;;;;;;11.00;11.00;;;;;15.97;68.42;100768.66;5077185;28;45336;-62
2022/04/13 06:50:29;;;;;;;;;12.67;11.67;;;;;15.94;67.90;100768.81;5076882;27;45445;-64
2022/04/13 06:52:57;;;;;;;;;12.00;12.00;;;;;15.97;67.92;100779.25;5076846;27;46149;-65
2022/04/13 06:55:22;;;;;;;;;10.00;10.00;;;;;15.96;68.47;100783.72;5076485;27;45543;-64
2022/04/13 06:57:48;;;;;;;;;16.00;15.00;;;;;15.94;67.87;100788.25;5076976;27;45428;-63
2022/04/13 07:00:17;;;;;;;;;12.67;11.00;;;;;15.92;69.40;100795.41;5076561;27;45509;-65
2022/04/13 07:02:42;;;;;;;;;12.33;12.33;;;;;15.88;68.67;100807.16;5076676;28;46074;-65
2022/04/13 07:05:08;;;;;;;;;15.33;15.33;;;;;15.83;69.36;100804.75;5075026;28;45429;-66
2022/04/13 07:07:35;;;;;;;;;10.67;10.67;;;;;15.85;68.75;100817.91;5076691;27;45422;-66
2022/04/13 07:10:01;;;;;;;;;17.67;13.00;;;;;15.85;69.04;100821.44;5076632;27;45381;-64
2022/04/13 07:12:33;;;;;;;;;14.33;13.00;;;;;15.84;69.16;100827.66;5076250;27;46142;-64
2022/04/13 07:15:00;;;;;;;;;15.00;13.00;;;;;15.87;69.62;100830.13;5076539;27;45525;-66
2022/04/13 07:17:25;;;;;;;;;16.33;12.33;;;;;15.89;68.60;100840.69;5076265;27;45444;-64
2022/04/13 07:19:51;;;;;;;;;12.00;12.00;;;;;15.85;69.14;100833.81;5076416;27;45594;-64
2022/04/13 07:22:16;;;;;;;;;13.00;13.00;;;;;15.91;69.41;100844.13;5076111;27;47061;-63
2022/04/13 07:24:42;;;;;;;;;14.33;14.00;;;;;15.95;68.78;100848.31;5076060;27;45467;-62
2022/04/13 07:27:07;;;;;;;;;12.67;12.67;;;;;15.93;68.91;100839.56;5075820;27;52020;-65
2022/04/13 07:29:32;;;;;;;;;13.33;12.00;;;;;15.96;68.79;100847.38;5076143;27;45596;-64
2022/04/13 07:31:57;;;;;;;;;12.33;11.33;;;;;15.88;69.31;100837.19;5075863;27;46183;-65
2022/04/13 07:34:23;;;;;;;;;11.33;10.00;;;;;15.93;68.77;100851.97;5075988;27;45463;-63
2022/04/13 07:36:48;;;;;;;;;14.33;14.00;;;;;15.94;68.38;100853.72;5076204;27;45571;-64
2022/04/13 07:39:13;;;;;;;;;10.33;10.33;;;;;15.93;68.05;100851.97;5076115;27;45438;-64
2022/04/13 07:41:39;;;;;;;;;10.67;10.67;;;;;15.93;68.26;100851.97;5075954;27;45424;-64
2022/04/13 07:44:05;;;;;;;;;11.33;11.33;;;;;15.94;69.00;100854.56;5076061;27;45524;-64
2022/04/13 07:46:30;;;;;;;;;12.00;11.00;;;;;15.95;68.82;100850.09;5075932;27;45529;-64
2022/04/13 07:48:58;;;;;;;;;13.67;10.33;;;;;15.97;68.14;100858.84;5076065;27;45477;-65
2022/04/13 07:51:23;;;;;;;;;12.00;12.00;;;;;15.98;68.16;100858.75;5075624;28;45442;-63
2022/04/13 07:53:49;;;;;;;;;12.67;11.33;;;;;16.02;67.32;100862.13;5076028;27;45391;-65
2022/04/13 07:56:14;;;;;;;;;9.00;9.00;;;;;15.99;67.71;100847.22;5074858;28;45371;-64
2022/04/13 07:58:40;;;;;;;;;10.00;9.33;;;;;16.03;67.60;100861.16;5075859;27;45319;-64
2022/04/13 08:01:05;;;;;;;;;14.00;11.00;;;;;16.01;67.60;100855.06;5075629;27;45446;-65
2022/04/13 08:03:31;;;;;;;;;11.33;11.33;;;;;15.99;67.56;100849.00;5075738;27;45459;-64
2022/04/13 08:05:56;;;;;;;;;11.00;11.00;;;;;16.02;69.08;100852.34;5075714;27;45752;-62
2022/04/13 08:08:21;;;;;;;;;13.33;11.33;;;;;16.01;68.07;100858.59;5075920;27;45544;-63
2022/04/13 08:10:47;;;;;;;;;11.00;10.00;;;;;15.99;68.20;100860.47;5075549;27;45397;-63
2022/04/13 08:13:13;;;;;;;;;11.33;11.33;;;;;16.01;68.74;100863.91;5075594;27;45498;-63
2022/04/13 08:15:38;;;;;;;;;12.33;12.33;;;;;16.03;68.64;100866.47;5075888;27;45416;-62
2022/04/13 08:18:04;;;;;;;;;13.33;12.00;;;;;16.04;68.92;100870.81;5075390;27;45401;-65
2022/04/13 08:20:29;;;;;;;;;20.33;17.00;;;;;15.99;68.54;100871.09;5075332;27;46796;-64
2022/04/13 08:22:54;;;;;;;;;17.33;15.33;;;;;16.04;68.99;100881.44;5075328;27;45511;-62
2022/04/13 08:25:20;;;;;;;;;15.67;13.00;;;;;16.05;68.90;100877.88;5075474;27;45428;-63
2022/04/13 08:27:45;;;;;;;;;15.00;12.67;;;;;16.04;68.85;100869.06;5075668;27;45450;-62
2022/04/13 08:30:12;;;;;;;;;12.33;11.00;;;;;16.07;68.28;100874.19;5075272;27;46123;-64
2022/04/13 08:32:37;;;;;;;;;13.00;12.33;;;;;16.05;68.35;100873.41;5075405;27;45404;-65
2022/04/13 08:35:05;;;;;;;;;12.00;12.00;;;;;16.05;68.75;100878.72;5074307;28;45416;-62
2022/04/13 08:37:32;;;;;;;;;12.67;10.33;;;;;16.04;68.16;100887.63;5075222;27;45463;-64
2022/04/13 08:39:57;;;;;;;;;10.67;9.67;;;;;16.05;68.18;100894.63;5075002;27;45470;-63
2022/04/13 08:42:41;;;;;;;;;10.67;10.67;;;;;16.08;67.67;100905.06;5075031;27;46824;-63
2022/04/13 08:45:18;;;;;;;;;13.00;13.00;;;;;16.09;67.64;100900.63;5075395;27;45530;-65
2022/04/13 08:47:46;;;;;;;;;13.67;13.67;;;;;16.11;67.79;100912.03;5075275;28;45481;-65
2022/04/13 08:50:13;;;;;;;;;13.67;13.67;;;;;16.10;67.68;100913.81;5074805;27;45538;-65
2022/04/13 08:52:39;;;;;;;;;12.67;12.67;;;;;16.12;68.83;100921.72;5075051;27;45440;-63
2022/04/13 08:55:06;;;;;;;;;22.67;21.00;;;;;16.10;68.69;100927.09;5090811;27;45534;-64
2022/04/13 08:57:46;;;;;;;;;12.67;12.67;;;;;16.08;67.51;100925.44;5075079;27;45516;-65
2022/04/13 09:00:19;;;;;;;;;13.33;12.33;;;;;16.09;69.29;100929.81;5074474;27;45488;-64
2022/04/13 09:02:50;;;;;;;;;11.00;11.00;;;;;16.07;68.15;100937.88;5075354;27;45625;-63
2022/04/13 09:05:17;;;;;;;;;12.00;11.00;;;;;16.05;68.64;100937.09;5078568;28;45395;-65
2022/04/13 09:07:45;;;;;;;;;10.00;10.00;;;;;15.99;67.91;100939.22;5078713;27;45623;-65
2022/04/13 09:10:16;;;;;;;;;10.00;10.00;;;;;15.95;68.87;100946.47;5078339;28;45539;-63
2022/04/13 09:12:43;;;;;;;;;10.33;9.33;;;;;15.90;68.02;100948.50;5078494;27;45683;-64
2022/04/13 09:15:10;;;;;;;;;10.00;10.00;;;;;15.93;67.83;100950.13;5078731;27;45455;-63
2022/04/13 09:17:35;;;;;;;;;12.67;10.33;;;;;15.88;68.75;100940.63;5078486;27;45487;-64
2022/04/13 09:20:01;;;;;;;;;9.00;9.00;;;;;15.87;68.63;100941.53;5078234;27;46799;-66
2022/04/13 09:22:29;;;;;;;;;7.33;7.33;;;;;15.89;67.67;100946.78;5078535;27;45427;-62
2022/04/13 09:24:56;;;;;;;;;8.67;8.67;;;;;15.96;67.58;100956.16;5078499;28;45421;-64
2022/04/13 09:27:23;;;;;;;;;11.33;11.33;;;;;15.93;68.62;100956.28;5078409;27;45500;-66
2022/04/13 09:29:49;;;;;;;;;12.67;12.00;;;;;15.88;68.63;100956.53;5078148;27;45378;-66
2022/04/13 09:32:14;;;;;;;;;13.00;12.00;;;;;15.95;68.16;100959.72;5093922;27;45492;-64
2022/04/13 09:34:40;;;;;;;;;25.00;24.67;;;;;16.00;68.25;100970.09;5078183;27;45452;-63
2022/04/13 09:37:07;;;;;;;;;13.00;13.00;;;;;15.99;69.56;100971.91;5076865;28;45477;-65
2022/04/13 09:39:33;;;;;;;;;14.00;14.00;;;;;15.97;69.14;100971.13;5077853;28;46050;-63
2022/04/13 09:42:03;;;;;;;;;13.33;11.67;;;;;15.99;68.71;100971.91;5076565;28;45518;-62
2022/04/13 09:44:30;;;;;;;;;15.33;14.00;;;;;16.05;68.36;100976.03;5077625;28;45480;-63
2022/04/13 09:47:06;;;;;;;;;14.00;14.00;;;;;16.06;68.36;100983.88;5077968;27;45552;-63
2022/04/13 09:49:31;;;;;;;;;12.67;12.67;;;;;15.96;68.26;100977.38;5076598;28;47106;-66
2022/04/13 09:51:56;;;;;;;;;17.33;15.33;;;;;15.83;68.79;100957.72;5077885;27;45465;-63
2022/04/13 09:54:26;;;;;;;;;19.00;19.00;;;;;15.88;69.00;100967.16;5078148;27;45405;-64
2022/04/13 09:56:52;;;;;;;;;16.67;16.33;;;;;15.99;68.69;100973.69;5077800;28;45530;-63
2022/04/13 09:59:28;;;;;;;;;17.67;15.00;;;;;15.92;69.75;100972.28;5077517;27;45464;-66
2022/04/13 10:01:54;;;;;;;;;9.33;9.00;;;;;15.82;69.83;100972.75;5077740;27;45545;-63
2022/04/13 10:04:30;;;;;;;;;13.00;11.00;;;;;15.73;69.07;100969.72;5077788;27;45387;-67
2022/04/13 10:07:13;;;;;;;;;12.67;12.67;;;;;15.72;69.95;100957.41;5077684;27;45549;-64
2022/04/13 10:09:38;;;;;;;;;13.00;13.00;;;;;15.90;69.33;100975.00;5077112;27;45528;-65
2022/04/13 10:12:04;;;;;;;;;16.33;14.67;;;;;15.89;69.99;100974.16;5077553;27;45456;-65
2022/04/13 10:14:30;;;;;;;;;20.67;19.00;;;;;15.89;70.54;100968.00;5076059;28;45477;-63
2022/04/13 10:17:11;;;;;;;;;18.33;13.33;;;;;15.86;69.38;100968.16;5077629;28;45662;-63
2022/04/13 10:19:37;;;;;;;;;14.67;13.67;;;;;15.87;70.44;100968.06;5077295;27;46223;-64
2022/04/13 10:22:03;;;;;;;;;16.33;15.00;;;;;15.85;70.69;100969.09;5076842;27;45439;-62
2022/04/13 10:24:30;;;;;;;;;14.67;14.33;;;;;15.89;70.35;100966.19;5077389;27;45424;-65
2022/04/13 10:27:24;;;;;;;;;11.00;11.00;;;;;15.89;70.47;100968.00;5077582;27;45496;-65
2022/04/13 10:29:50;;;;;;;;;13.00;13.00;;;;;15.97;69.99;100970.25;5076195;27;45658;-63
2022/04/13 10:32:25;;;;;;;;;10.00;9.00;;;;;16.02;69.45;100977.03;5077202;27;45480;-64
2022/04/13 10:34:55;;;;;;;;;10.00;10.00;;;;;16.01;69.17;100980.66;5077288;28;45409;-64
2022/04/13 10:37:23;;;;;;;;;14.67;13.33;;;;;16.08;69.10;100976.72;5077054;27;45356;-63
2022/04/13 10:39:49;;;;;;;;;12.33;11.00;;;;;16.11;68.71;100979.19;5076890;27;45539;-62
2022/04/13 10:42:19;;;;;;;;;13.33;12.33;;;;;16.10;68.09;100982.81;5076816;28;45459;-64
2022/04/13 10:44:59;;;;;;;;;12.00;12.00;;;;;16.11;68.15;100979.19;5076811;27;45403;-64
2022/04/13 10:47:30;;;;;;;;;14.33;14.33;;;;;16.12;68.14;100980.09;5075228;28;45433;-63
2022/04/13 10:50:01;;;;;;;;;16.33;14.67;;;;;16.08;68.76;100984.69;5076502;27;45445;-61
2022/04/13 10:52:44;;;;;;;;;18.33;18.33;;;;;16.15;67.83;100987.88;5076545;27;45511;-63
2022/04/13 10:55:12;;;;;;;;;23.33;22.00;;;;;16.23;67.64;100987.50;5076715;27;45504;-63
2022/04/13 10:57:45;;;;;;;;;18.33;17.00;;;;;16.30;67.73;100984.41;5076462;27;45558;-65
2022/04/13 11:00:12;;;;;;;;;11.00;9.67;;;;;16.35;68.15;100979.72;5076002;28;46349;-65
2022/04/13 11:02:47;;;;;;;;;12.67;11.67;;;;;16.35;67.01;100977.06;5076377;27;45515;-62
2022/04/13 11:05:13;;;;;;;;;10.67;9.67;;;;;16.32;67.25;100971.91;5076610;27;45393;-63
2022/04/13 11:07:40;;;;;;;;;8.00;8.00;;;;;16.35;67.29;100970.88;5076416;27;45377;-65
2022/04/13 11:10:09;;;;;;;;;11.33;10.33;;;;;16.36;66.71;100969.94;5076224;27;46236;-63
2022/04/13 11:12:37;;;;;;;;;5.67;5.67;;;;;16.43;66.18;100984.59;5076368;27;45419;-64
2022/04/13 11:15:03;;;;;;;;;8.00;7.00;;;;;16.43;66.67;100984.59;5076015;27;45426;-65
2022/04/13 11:17:28;;;;;;;;;6.67;6.67;;;;;16.44;66.93;100983.69;5074965;28;45473;-65